createdAt,value
2022-08-16T00:00:38.610Z,16.04
2022-08-16T00:03:13.251Z,16.03
2022-08-16T00:05:47.993Z,15.52
2022-08-16T00:08:35.804Z,15.97
2022-08-16T00:11:06.200Z,16.10
2022-08-16T00:13:41.904Z,16.15
2022-08-16T00:17:00.988Z,16.15
2022-08-16T00:18:59.598Z,16.15
2022-08-16T00:21:29.081Z,16.14
2022-08-16T00:23:59.087Z,16.01
2022-08-16T00:26:36.333Z,16.12
2022-08-16T00:29:15.348Z,15.69
2022-08-16T00:31:59.002Z,16.06
2022-08-16T00:34:52.499Z,15.92
2022-08-16T00:37:18.654Z,16.00
2022-08-16T00:39:57.378Z,15.99
2022-08-16T00:42:30.082Z,15.97
2022-08-16T00:45:08.437Z,15.79
2022-08-16T00:47:49.458Z,15.99
2022-08-16T00:50:20.301Z,15.16
2022-08-16T00:52:51.187Z,16.01
2022-08-16T00:55:23.214Z,16.03
2022-08-16T00:57:55.576Z,16.04
2022-08-16T01:00:30.046Z,15.48
2022-08-16T01:03:00.205Z,15.92
2022-08-16T01:05:29.108Z,16.03
2022-08-16T01:07:57.475Z,15.83
2022-08-16T01:10:33.531Z,16.05
2022-08-16T01:13:07.218Z,16.05
2022-08-16T01:15:43.588Z,15.76
2022-08-16T01:18:39.089Z,16.01
2022-08-16T01:21:15.282Z,15.56
2022-08-16T01:24:01.445Z,15.79
2022-08-16T01:26:34.658Z,15.75
2022-08-16T01:29:09.756Z,15.78
2022-08-16T01:31:42.913Z,15.73
2022-08-16T01:34:23.309Z,15.82
2022-08-16T01:37:00.412Z,15.79
2022-08-16T01:39:35.437Z,15.77
2022-08-16T01:42:07.799Z,15.77
2022-08-16T01:44:43.455Z,15.75
2022-08-16T01:47:12.196Z,15.73
2022-08-16T01:49:45.719Z,15.58
2022-08-16T01:52:30.600Z,15.71
2022-08-16T01:55:19.686Z,15.53
2022-08-16T01:57:53.698Z,15.72
2022-08-16T02:00:29.109Z,15.73
2022-08-16T02:02:58.967Z,15.73
2022-08-16T02:05:30.696Z,15.74
2022-08-16T02:08:01.252Z,15.69
2022-08-16T02:10:33.920Z,15.70
2022-08-16T02:13:04.100Z,15.77
2022-08-16T02:15:35.449Z,15.76
2022-08-16T02:18:12.693Z,15.57
2022-08-16T02:20:45.494Z,15.79
2022-08-16T02:23:17.139Z,15.80
2022-08-16T02:25:50.811Z,15.79
2022-08-16T02:28:23.654Z,15.78
2022-08-16T02:30:52.578Z,15.77
2022-08-16T02:33:24.708Z,15.67
2022-08-16T02:36:14.193Z,15.76
2022-08-16T02:38:42.891Z,15.76
2022-08-16T02:41:12.315Z,15.76
2022-08-16T02:43:41.258Z,15.75
2022-08-16T02:46:10.921Z,15.75
2022-08-16T02:48:49.397Z,15.74
2022-08-16T02:51:19.226Z,15.50
2022-08-16T02:53:51.760Z,15.70
2022-08-16T02:56:23.012Z,15.66
2022-08-16T02:58:53.532Z,15.62
2022-08-16T03:01:36.625Z,15.63
2022-08-16T03:04:40.101Z,15.61
2022-08-16T03:07:07.676Z,15.59
2022-08-16T03:09:48.903Z,15.57
2022-08-16T03:12:30.300Z,14.33
2022-08-16T03:15:05.815Z,15.44
2022-08-16T03:17:33.921Z,15.52
2022-08-16T03:20:05.069Z,15.53
2022-08-16T03:22:37.574Z,15.53
2022-08-16T03:25:13.958Z,15.50
2022-08-16T03:27:51.746Z,15.49
2022-08-16T03:30:22.464Z,15.47
2022-08-16T03:32:58.059Z,15.43
2022-08-16T03:35:33.433Z,15.43
2022-08-16T03:38:34.537Z,15.41
2022-08-16T03:41:03.035Z,15.39
2022-08-16T03:43:51.457Z,15.39
2022-08-16T03:46:44.537Z,15.37
2022-08-16T03:49:13.329Z,15.36
2022-08-16T03:51:43.972Z,15.35
2022-08-16T03:54:20.275Z,15.12
2022-08-16T03:56:57.267Z,15.26
2022-08-16T03:59:29.769Z,15.21
2022-08-16T04:02:00.957Z,15.31
2022-08-16T04:04:33.504Z,15.30
2022-08-16T04:07:04.315Z,15.28
2022-08-16T04:09:38.048Z,15.29
2022-08-16T04:12:11.085Z,15.28
2022-08-16T04:14:56.620Z,15.27
2022-08-16T04:17:26.918Z,15.26
2022-08-16T04:19:58.416Z,15.19
2022-08-16T04:22:29.387Z,15.26
2022-08-16T04:25:02.528Z,15.24
2022-08-16T04:27:35.652Z,15.22
2022-08-16T04:30:10.844Z,15.22
2022-08-16T04:32:44.258Z,15.23
2022-08-16T04:35:20.343Z,15.17
2022-08-16T04:37:54.051Z,15.28
2022-08-16T04:40:27.269Z,15.31
2022-08-16T04:42:56.977Z,15.34
2022-08-16T04:45:36.185Z,15.36
2022-08-16T04:48:08.594Z,15.38
2022-08-16T04:50:46.570Z,15.42
2022-08-16T04:53:19.190Z,15.46
2022-08-16T04:55:53.225Z,15.16
2022-08-16T04:58:45.043Z,15.40
2022-08-16T05:01:12.497Z,15.96
2022-08-16T05:04:00.688Z,16.33
2022-08-16T05:06:44.697Z,16.62
2022-08-16T05:09:18.825Z,17.04
2022-08-16T05:11:51.349Z,17.41
2022-08-16T05:14:20.186Z,17.36
2022-08-16T05:17:08.676Z,18.04
2022-08-16T05:19:39.486Z,18.42
2022-08-16T05:22:18.212Z,18.72
2022-08-16T05:24:54.873Z,19.05
2022-08-16T05:27:23.234Z,19.39
2022-08-16T05:30:00.142Z,19.78
2022-08-16T05:32:36.288Z,20.01
2022-08-16T05:35:10.874Z,20.59
2022-08-16T05:37:43.587Z,21.13
2022-08-16T05:40:15.709Z,21.56
2022-08-16T05:42:47.590Z,21.99
2022-08-16T05:45:21.360Z,22.50
2022-08-16T05:47:59.789Z,23.04
2022-08-16T05:50:34.758Z,23.41
2022-08-16T05:53:04.172Z,23.95
2022-08-16T05:55:40.800Z,24.64
2022-08-16T05:58:09.517Z,25.36
2022-08-16T06:00:57.843Z,26.03
2022-08-16T06:03:29.630Z,26.63
2022-08-16T06:06:08.500Z,27.29
2022-08-16T06:08:44.982Z,27.95
2022-08-16T06:11:16.296Z,28.65
2022-08-16T06:13:53.136Z,29.33
2022-08-16T06:33:59.257Z,33.90
2022-08-16T06:36:32.475Z,34.35
2022-08-16T06:39:21.968Z,34.93
2022-08-16T06:42:03.182Z,35.29
2022-08-16T06:44:52.125Z,35.85
2022-08-16T06:47:53.747Z,36.43
2022-08-16T06:50:29.907Z,36.75
2022-08-16T06:53:08.578Z,37.50
2022-08-16T06:55:40.137Z,37.96
2022-08-16T06:58:22.075Z,38.31
2022-08-16T07:00:53.801Z,38.85
2022-08-16T07:03:27.451Z,38.91
2022-08-16T07:05:58.880Z,38.21
2022-08-16T07:08:33.273Z,38.20
2022-08-16T07:11:01.704Z,38.82
2022-08-16T07:14:03.946Z,39.20
2022-08-16T07:16:21.931Z,39.17
2022-08-16T07:18:59.124Z,39.54
2022-08-16T07:21:45.713Z,39.76
2022-08-16T07:24:30.011Z,39.72
2022-08-16T07:27:01.399Z,40.19
2022-08-16T07:29:31.663Z,40.82
2022-08-16T07:32:01.591Z,40.78
2022-08-16T07:34:35.336Z,40.94
2022-08-16T07:37:08.169Z,41.28
2022-08-16T07:39:56.283Z,41.64
2022-08-16T07:42:28.685Z,41.83
2022-08-16T07:45:07.595Z,42.38
2022-08-16T07:47:41.944Z,42.48
2022-08-16T07:50:57.342Z,42.96
2022-08-16T07:53:01.979Z,43.69
2022-08-16T07:55:39.070Z,43.55
2022-08-16T07:58:35.061Z,43.72
2022-08-16T08:01:10.658Z,44.59
2022-08-16T08:03:49.344Z,45.07
2022-08-16T08:06:24.850Z,45.85
2022-08-16T08:08:57.224Z,46.31
2022-08-16T08:11:29.029Z,46.38
2022-08-16T08:14:03.841Z,46.05
2022-08-16T08:16:39.583Z,45.62
2022-08-16T08:19:19.619Z,45.50
2022-08-16T08:22:01.068Z,45.87
2022-08-16T08:24:44.028Z,46.84
2022-08-16T08:27:12.534Z,47.36
2022-08-16T08:30:48.897Z,47.38
2022-08-16T08:33:00.020Z,47.56
2022-08-16T08:35:32.202Z,48.29
2022-08-16T08:38:02.341Z,48.89
2022-08-16T08:40:33.720Z,48.86
2022-08-16T08:43:11.784Z,49.08
2022-08-16T08:45:49.323Z,49.36
2022-08-16T08:48:34.167Z,49.67
2022-08-16T08:51:09.658Z,49.50
2022-08-16T08:53:57.809Z,49.24
2022-08-16T08:56:35.127Z,48.94
2022-08-16T08:59:29.132Z,48.04
2022-08-16T09:01:58.702Z,47.81
2022-08-16T09:04:31.435Z,47.95
2022-08-16T09:07:01.694Z,48.96
2022-08-16T09:09:34.206Z,50.08
2022-08-16T09:12:31.260Z,50.73
2022-08-16T09:15:13.431Z,50.75
2022-08-16T09:17:51.891Z,51.02
2022-08-16T09:20:23.637Z,51.60
2022-08-16T09:22:54.714Z,52.17
2022-08-16T09:25:35.400Z,52.71
2022-08-16T09:28:08.804Z,53.34
2022-08-16T09:30:43.855Z,53.78
2022-08-16T09:33:14.488Z,53.81
2022-08-16T09:35:42.826Z,53.80
2022-08-16T09:38:31.452Z,53.88
2022-08-16T09:41:01.116Z,54.02
2022-08-16T09:43:58.067Z,54.23
2022-08-16T09:46:33.535Z,54.38
2022-08-16T09:49:08.488Z,54.41
2022-08-16T09:51:37.492Z,54.71
2022-08-16T09:54:06.067Z,55.01
2022-08-16T09:56:53.248Z,55.11
2022-08-16T09:59:25.425Z,55.27
2022-08-16T10:01:59.504Z,55.31
2022-08-16T10:04:30.370Z,55.16
2022-08-16T10:09:42.315Z,55.14
2022-08-16T10:12:34.352Z,55.45
2022-08-16T10:15:03.555Z,55.31
2022-08-16T10:20:06.842Z,54.84
2022-08-16T10:22:36.950Z,54.95
2022-08-16T10:25:09.844Z,54.57
2022-08-16T10:27:46.200Z,54.11
2022-08-16T10:30:24.873Z,53.85
2022-08-16T10:32:54.162Z,52.83
2022-08-16T10:35:22.770Z,50.46
2022-08-16T10:37:52.175Z,51.38
2022-08-16T10:40:29.033Z,52.88
2022-08-16T10:42:59.782Z,54.12
2022-08-16T10:45:36.606Z,54.47
2022-08-16T10:48:28.017Z,54.75
2022-08-16T10:50:57.854Z,55.35
2022-08-16T10:53:26.320Z,55.91
2022-08-16T10:56:01.801Z,55.88
2022-08-16T10:58:34.253Z,55.81
2022-08-16T11:03:57.281Z,55.11
2022-08-16T11:06:28.748Z,54.41
2022-08-16T11:14:34.387Z,51.95
2022-08-16T11:17:10.885Z,50.96
2022-08-16T11:22:46.905Z,52.70
2022-08-16T11:28:07.628Z,53.26
2022-08-16T11:30:38.817Z,53.64
2022-08-16T11:33:08.854Z,53.72
2022-08-16T11:38:51.298Z,53.41
2022-08-16T11:41:15.451Z,52.79
2022-08-16T11:43:43.692Z,51.79
2022-08-16T11:46:34.213Z,50.36
2022-08-16T11:49:07.611Z,48.42
2022-08-16T11:51:39.580Z,46.61
2022-08-16T11:58:51.709Z,43.26
2022-08-16T12:01:29.939Z,42.43
2022-08-16T12:04:17.793Z,41.61
2022-08-16T12:06:53.764Z,40.63
2022-08-16T12:09:24.088Z,40.02
2022-08-16T12:11:53.336Z,39.49
2022-08-16T12:14:22.996Z,38.76
2022-08-16T12:16:55.632Z,38.23
2022-08-16T12:19:36.805Z,37.53
2022-08-16T12:22:19.258Z,38.05
2022-08-16T12:24:52.052Z,37.72
2022-08-16T12:27:23.244Z,37.17
2022-08-16T12:29:52.367Z,36.66
2022-08-16T12:32:37.560Z,36.10
2022-08-16T12:35:11.983Z,35.69
2022-08-16T12:37:41.696Z,35.39
2022-08-16T12:40:22.446Z,35.04
2022-08-16T12:42:58.764Z,35.01
2022-08-16T12:45:30.672Z,34.90
2022-08-16T12:48:34.534Z,34.72
2022-08-16T12:51:13.359Z,34.82
2022-08-16T12:53:42.196Z,34.78
2022-08-16T12:56:13.830Z,34.83
2022-08-16T12:58:50.480Z,34.75
2022-08-16T13:01:22.372Z,34.45
2022-08-16T13:03:59.291Z,34.05
2022-08-16T13:06:39.862Z,33.92
2022-08-16T13:09:20.146Z,33.92
2022-08-16T13:11:59.841Z,33.92
2022-08-16T13:14:33.211Z,33.99
2022-08-16T13:17:05.197Z,34.11
2022-08-16T13:20:05.450Z,34.17
2022-08-16T13:22:25.872Z,33.93
2022-08-16T13:24:55.739Z,33.80
2022-08-16T13:27:59.206Z,33.50
2022-08-16T13:30:36.311Z,33.28
2022-08-16T13:33:01.430Z,33.26
2022-08-16T13:35:42.906Z,33.28
2022-08-16T13:38:25.173Z,33.21
2022-08-16T13:40:56.158Z,33.17
2022-08-16T13:43:26.439Z,33.20
2022-08-16T13:45:55.384Z,33.13
2022-08-16T13:48:24.497Z,33.16
2022-08-16T13:50:54.572Z,32.97
2022-08-16T13:53:24.776Z,33.16
2022-08-16T13:55:57.854Z,33.12
2022-08-16T13:58:34.978Z,33.00
2022-08-16T14:01:04.331Z,32.86
2022-08-16T14:03:38.613Z,32.62
2022-08-16T14:06:07.919Z,32.62
2022-08-16T14:08:42.319Z,32.35
2022-08-16T14:11:12.160Z,32.39
2022-08-16T14:13:41.447Z,32.24
2022-08-16T14:16:24.632Z,31.63
2022-08-16T14:19:02.454Z,32.01
2022-08-16T14:21:34.731Z,31.95
2022-08-16T14:24:16.756Z,31.94
2022-08-16T14:26:50.904Z,31.97
2022-08-16T14:29:20.992Z,31.82
2022-08-16T14:31:49.647Z,32.01
2022-08-16T14:34:25.725Z,32.05
2022-08-16T14:36:56.920Z,32.12
2022-08-16T14:39:26.086Z,32.28
2022-08-16T14:41:55.838Z,32.39
2022-08-16T14:44:26.065Z,32.37
2022-08-16T14:46:54.897Z,32.25
2022-08-16T14:49:24.018Z,32.10
2022-08-16T14:51:52.056Z,32.04
2022-08-16T14:54:20.267Z,31.96
2022-08-16T14:56:54.672Z,31.78
2022-08-16T15:02:35.206Z,31.83
2022-08-16T15:05:22.250Z,31.70
2022-08-16T15:07:57.052Z,31.79
2022-08-16T15:10:32.601Z,31.66
2022-08-16T15:25:02.140Z,31.81
2022-08-16T15:27:35.774Z,31.79
2022-08-16T15:30:58.279Z,31.56
2022-08-16T15:33:03.624Z,31.63
2022-08-16T15:35:33.414Z,31.74
2022-08-16T15:38:08.991Z,31.47
2022-08-16T15:40:57.705Z,31.47
2022-08-16T15:43:33.865Z,30.89
2022-08-16T15:46:35.439Z,31.28
2022-08-16T15:49:13.975Z,31.35
2022-08-16T15:51:43.554Z,31.17
2022-08-16T15:54:29.801Z,31.08
2022-08-16T15:57:10.893Z,31.11
2022-08-16T15:59:49.523Z,30.78
2022-08-16T16:02:31.704Z,29.35
2022-08-16T16:05:02.130Z,30.79
2022-08-16T16:07:33.436Z,30.92
2022-08-16T16:13:43.488Z,30.37
2022-08-16T16:16:13.208Z,30.92
2022-08-16T16:18:48.797Z,31.36
2022-08-16T16:21:20.314Z,31.09
2022-08-16T16:24:21.068Z,31.47
2022-08-16T16:26:51.614Z,31.17
2022-08-16T16:29:19.544Z,31.36
2022-08-16T16:31:59.144Z,31.22
2022-08-16T16:34:32.440Z,31.00
2022-08-16T16:37:03.528Z,30.77
2022-08-16T16:39:32.572Z,30.58
2022-08-16T16:42:00.657Z,30.32
2022-08-16T16:44:33.850Z,30.18
2022-08-16T16:47:06.750Z,30.11
2022-08-16T16:49:35.979Z,29.98
2022-08-16T16:52:10.128Z,29.77
2022-08-16T16:54:41.130Z,29.70
2022-08-16T16:57:29.594Z,29.48
2022-08-16T16:59:57.791Z,29.36
2022-08-16T17:02:46.373Z,29.22
2022-08-16T17:05:16.574Z,29.12
2022-08-16T17:07:44.744Z,28.78
2022-08-16T17:10:13.238Z,29.00
2022-08-16T17:13:05.283Z,28.92
2022-08-16T17:15:36.344Z,28.81
2022-08-16T17:19:16.604Z,28.39
2022-08-16T17:20:54.110Z,28.19
2022-08-16T17:23:23.204Z,28.46
2022-08-16T17:26:11.562Z,27.60
2022-08-16T17:28:58.201Z,27.80
2022-08-16T17:31:40.888Z,28.07
2022-08-16T17:34:29.544Z,27.93
2022-08-16T17:37:05.465Z,27.67
2022-08-16T17:39:59.713Z,27.67
2022-08-16T17:42:25.897Z,27.31
2022-08-16T17:44:54.512Z,27.43
2022-08-16T17:47:22.842Z,27.31
2022-08-16T17:49:50.924Z,27.00
2022-08-16T17:52:20.001Z,27.11
2022-08-16T17:54:47.900Z,26.95
2022-08-16T17:57:17.095Z,26.88
2022-08-16T17:59:44.904Z,26.78
2022-08-16T18:02:42.129Z,26.68
2022-08-16T18:05:00.630Z,26.56
2022-08-16T18:07:29.793Z,26.45
2022-08-16T18:09:57.595Z,26.37
2022-08-16T18:12:54.247Z,26.25
2022-08-16T18:15:18.142Z,26.12
2022-08-16T18:17:46.220Z,25.83
2022-08-16T18:20:35.152Z,25.67
2022-08-16T18:23:05.242Z,25.73
2022-08-16T18:25:33.013Z,25.60
2022-08-16T18:28:00.792Z,25.49
2022-08-16T18:30:28.623Z,25.37
2022-08-16T18:32:57.056Z,25.09
2022-08-16T18:35:24.839Z,25.13
2022-08-16T18:37:52.767Z,25.04
2022-08-16T18:40:22.056Z,24.93
2022-08-16T18:43:03.501Z,24.44
2022-08-16T18:45:36.951Z,24.40
2022-08-16T18:48:07.051Z,24.32
2022-08-16T18:51:03.941Z,24.49
2022-08-16T18:53:25.833Z,24.37
2022-08-16T18:55:57.313Z,24.25
2022-08-16T18:58:26.372Z,24.08
2022-08-16T19:00:57.588Z,24.03
2022-08-16T19:03:27.974Z,23.91
2022-08-16T19:05:58.417Z,23.73
2022-08-16T19:08:26.502Z,23.06
2022-08-16T19:10:56.860Z,23.02
2022-08-16T19:13:28.238Z,23.45
2022-08-16T19:18:25.931Z,23.12
2022-08-16T19:20:55.636Z,21.70
2022-08-16T19:23:26.913Z,22.78
2022-08-16T19:25:59.989Z,21.72
2022-08-16T19:28:51.246Z,22.50
2022-08-16T19:31:21.445Z,22.73
2022-08-16T19:33:54.875Z,22.08
2022-08-16T19:36:31.055Z,22.01
2022-08-16T19:39:05.359Z,21.34
2022-08-16T19:41:36.965Z,22.33
2022-08-16T19:44:06.178Z,21.82
2022-08-16T19:46:34.311Z,22.17
2022-08-16T19:49:02.648Z,22.07
2022-08-16T19:51:31.412Z,21.99
2022-08-16T19:53:59.419Z,21.90
2022-08-16T19:56:27.305Z,21.72
2022-08-16T19:59:17.966Z,21.51
2022-08-16T20:01:46.241Z,21.43
2022-08-16T20:04:14.646Z,21.43
2022-08-16T20:06:43.485Z,21.43
2022-08-16T20:09:14.841Z,21.39
2022-08-16T20:11:44.606Z,21.32
2022-08-16T20:14:24.403Z,21.00
2022-08-16T20:16:56.189Z,20.82
2022-08-16T20:19:24.407Z,20.98
2022-08-16T20:21:52.513Z,21.06
2022-08-16T20:24:34.023Z,20.94
2022-08-16T20:27:06.110Z,20.87
2022-08-16T20:29:36.669Z,20.67
2022-08-16T20:32:05.693Z,20.86
2022-08-16T20:34:33.731Z,20.81
2022-08-16T20:37:01.519Z,20.74
2022-08-16T20:39:29.436Z,20.59
2022-08-16T20:41:57.379Z,20.51
2022-08-16T20:44:25.490Z,20.55
2022-08-16T20:46:54.683Z,20.49
2022-08-16T20:49:22.573Z,20.10
2022-08-16T20:51:55.894Z,20.27
2022-08-16T20:54:27.277Z,20.32
2022-08-16T20:56:55.127Z,19.83
2022-08-16T20:59:22.996Z,20.21
2022-08-16T21:01:51.045Z,20.17
2022-08-16T21:04:21.691Z,20.11
2022-08-16T21:06:54.314Z,20.05
2022-08-16T21:09:24.150Z,19.98
2022-08-16T21:11:53.871Z,19.97
2022-08-16T21:14:21.706Z,19.92
2022-08-16T21:16:49.558Z,19.89
2022-08-16T21:19:17.528Z,19.73
2022-08-16T21:21:47.456Z,19.80
2022-08-16T21:24:16.028Z,19.75
2022-08-16T21:26:53.056Z,19.70
2022-08-16T21:29:31.607Z,19.49
2022-08-16T21:32:13.752Z,19.38
2022-08-16T21:34:42.189Z,19.54
2022-08-16T21:37:12.101Z,19.49
2022-08-16T21:39:43.980Z,19.23
2022-08-16T21:42:14.539Z,19.38
2022-08-16T21:44:43.048Z,19.33
2022-08-16T21:47:10.938Z,19.29
2022-08-16T21:49:39.243Z,19.19
2022-08-16T21:52:08.819Z,19.21
2022-08-16T21:54:38.318Z,19.17
2022-08-16T21:57:10.566Z,19.00
2022-08-16T21:59:38.941Z,19.12
2022-08-16T22:02:07.086Z,18.97
2022-08-16T22:04:37.921Z,19.05
2022-08-16T22:07:07.285Z,19.01
2022-08-16T22:09:35.235Z,18.97
2022-08-16T22:12:05.323Z,18.89
2022-08-16T22:14:33.214Z,18.92
2022-08-16T22:17:01.146Z,18.89
2022-08-16T22:19:29.894Z,18.84
2022-08-16T22:21:57.849Z,18.82
2022-08-16T22:24:25.593Z,18.77
2022-08-16T22:26:53.422Z,18.73
2022-08-16T22:29:22.571Z,18.69
2022-08-16T22:31:50.429Z,18.65
2022-08-16T22:34:18.279Z,18.61
2022-08-16T22:36:46.274Z,18.56
2022-08-16T22:39:15.158Z,18.52
2022-08-16T22:41:45.607Z,18.47
2022-08-16T22:44:13.984Z,18.44
2022-08-16T22:46:43.383Z,18.40
2022-08-16T22:49:12.488Z,18.39
2022-08-16T22:51:41.230Z,18.35
2022-08-16T22:54:45.121Z,18.31
2022-08-16T22:56:57.715Z,18.26
2022-08-16T22:59:25.977Z,18.08
2022-08-16T23:01:55.479Z,18.19
2022-08-16T23:04:23.841Z,18.17
2022-08-16T23:06:52.085Z,17.72
2022-08-16T23:09:20.047Z,17.94
2022-08-16T23:11:47.808Z,18.07
2022-08-16T23:14:16.230Z,17.86
2022-08-16T23:16:47.105Z,18.00
2022-08-16T23:19:17.596Z,17.99
2022-08-16T23:21:48.297Z,17.95
2022-08-16T23:24:19.107Z,17.91
2022-08-16T23:26:49.102Z,17.93
2022-08-16T23:29:24.667Z,17.92
2022-08-16T23:31:56.272Z,17.90
2022-08-16T23:34:26.676Z,17.71
2022-08-16T23:36:54.761Z,17.91
2022-08-16T23:39:23.008Z,17.91
2022-08-16T23:41:51.840Z,17.92
2022-08-16T23:44:42.393Z,17.93
2022-08-16T23:47:07.538Z,17.83
2022-08-16T23:49:56.346Z,17.93
2022-08-16T23:52:40.576Z,17.93
2022-08-16T23:55:12.832Z,17.79
2022-08-16T23:57:40.579Z,17.96
